DLH5UY EDDF-EDDL
Flight info
| Callsign | DLH5UY |
|---|---|
| Flight time | 0h 45m |
| Altitude | 24000 |
| Route | MARUN3W MARUN Y152 ARPEG Z850 ADEMI T854 DOMUX DOMUX1A |
| Aircraft | A321/M-SDE2E3FGILORWXYZ/HB1 |
Departure
| Time | 2026-05-04 18:47 |
|---|---|
| Airport | Frankfurt Main Airport (EDDF) |
Arrival
| Time | 2026-05-04 19:33 |
|---|---|
| Airport | Düsseldorf Airport (EDDL) |
| Time | Latitude | Longitude | Altitude | Speed | Heading |
|---|---|---|---|---|---|
| 2026-05-04 18:16 | 50.03698 | 8.54139 | 348 ft | 0 kts | 160° |
| 2026-05-04 18:41 | 50.03682 | 8.54148 | 352 ft | 5 kts | 160° |
| 2026-05-04 18:41 | 50.03630 | 8.54148 | 346 ft | 10 kts | 213° |
| 2026-05-04 18:41 | 50.03594 | 8.54045 | 343 ft | 13 kts | 248° |
| 2026-05-04 18:41 | 50.03553 | 8.53875 | 338 ft | 20 kts | 250° |
| 2026-05-04 18:42 | 50.03499 | 8.53649 | 337 ft | 23 kts | 250° |
| 2026-05-04 18:42 | 50.03451 | 8.53446 | 337 ft | 19 kts | 249° |
| 2026-05-04 18:42 | 50.03402 | 8.53249 | 333 ft | 21 kts | 249° |
| 2026-05-04 18:42 | 50.03350 | 8.53032 | 333 ft | 21 kts | 250° |
| 2026-05-04 18:43 | 50.03305 | 8.52844 | 334 ft | 12 kts | 250° |
| 2026-05-04 18:43 | 50.03284 | 8.52754 | 333 ft | 0 kts | 250° |
| 2026-05-04 18:45 | 50.03283 | 8.52751 | 331 ft | 2 kts | 250° |
| 2026-05-04 18:45 | 50.03274 | 8.52713 | 331 ft | 6 kts | 250° |
| 2026-05-04 18:45 | 50.03268 | 8.52651 | 335 ft | 5 kts | 264° |
| 2026-05-04 18:46 | 50.03260 | 8.52615 | 332 ft | 1 kts | 238° |
| 2026-05-04 18:46 | 50.03241 | 8.52602 | 334 ft | 8 kts | 191° |
| 2026-05-04 18:46 | 50.03157 | 8.52596 | 332 ft | 27 kts | 179° |
| 2026-05-04 18:46 | 50.02692 | 8.52599 | 335 ft | 104 kts | 180° |
| 2026-05-04 18:47 | 50.01741 | 8.52608 | 336 ft | 166 kts | 180° |
| 2026-05-04 18:47 | 50.00518 | 8.52619 | 831 ft | 176 kts | 180° |
| 2026-05-04 18:47 | 49.99294 | 8.52628 | 1640 ft | 175 kts | 180° |
| 2026-05-04 18:47 | 49.98080 | 8.52373 | 2179 ft | 183 kts | 201° |
| 2026-05-04 18:48 | 49.96972 | 8.51217 | 2469 ft | 204 kts | 226° |
| 2026-05-04 18:48 | 49.95910 | 8.49579 | 2751 ft | 226 kts | 225° |
| 2026-05-04 18:48 | 49.94762 | 8.47841 | 3408 ft | 232 kts | 224° |
| 2026-05-04 18:48 | 49.93604 | 8.46098 | 4254 ft | 232 kts | 224° |
| 2026-05-04 18:49 | 49.92420 | 8.44325 | 4826 ft | 247 kts | 223° |
| 2026-05-04 18:49 | 49.91132 | 8.42400 | 5281 ft | 263 kts | 223° |
| 2026-05-04 18:49 | 49.89805 | 8.40418 | 6034 ft | 266 kts | 223° |
| 2026-05-04 18:49 | 49.88485 | 8.38400 | 6844 ft | 267 kts | 227° |
| 2026-05-04 18:50 | 49.87585 | 8.35881 | 7596 ft | 272 kts | 252° |
| 2026-05-04 18:50 | 49.87481 | 8.32934 | 8360 ft | 280 kts | 278° |
| 2026-05-04 18:50 | 49.88236 | 8.30131 | 9113 ft | 288 kts | 302° |
| 2026-05-04 18:50 | 49.89670 | 8.27995 | 9857 ft | 296 kts | 326° |
| 2026-05-04 18:51 | 49.91631 | 8.26930 | 10512 ft | 306 kts | 352° |
| 2026-05-04 18:51 | 49.93812 | 8.27197 | 10756 ft | 328 kts | 12° |
| 2026-05-04 18:51 | 49.96109 | 8.28050 | 10882 ft | 350 kts | 13° |
| 2026-05-04 18:51 | 49.98540 | 8.28987 | 11065 ft | 368 kts | 13° |
| 2026-05-04 18:52 | 50.01058 | 8.29965 | 11555 ft | 375 kts | 13° |
| 2026-05-04 18:52 | 50.03608 | 8.30949 | 12152 ft | 379 kts | 12° |
| 2026-05-04 18:52 | 50.06184 | 8.31929 | 12769 ft | 383 kts | 12° |
| 2026-05-04 18:52 | 50.08776 | 8.32904 | 13387 ft | 386 kts | 12° |
| 2026-05-04 18:53 | 50.11405 | 8.33884 | 13963 ft | 389 kts | 12° |
| 2026-05-04 18:53 | 50.14052 | 8.34868 | 14481 ft | 393 kts | 12° |
| 2026-05-04 18:53 | 50.16721 | 8.35862 | 15009 ft | 396 kts | 12° |
| 2026-05-04 18:53 | 50.19410 | 8.36864 | 15540 ft | 399 kts | 12° |
| 2026-05-04 18:54 | 50.22123 | 8.37877 | 16077 ft | 402 kts | 12° |
| 2026-05-04 18:54 | 50.24854 | 8.38896 | 16610 ft | 405 kts | 12° |
| 2026-05-04 18:54 | 50.27611 | 8.39928 | 17139 ft | 409 kts | 12° |
| 2026-05-04 18:54 | 50.30353 | 8.41160 | 17634 ft | 413 kts | 18° |
| 2026-05-04 18:55 | 50.33074 | 8.42653 | 18130 ft | 415 kts | 18° |
| 2026-05-04 18:55 | 50.38557 | 8.45664 | 19158 ft | 413 kts | 18° |
| 2026-05-04 18:55 | 50.41233 | 8.47137 | 20071 ft | 403 kts | 18° |
| 2026-05-04 18:56 | 50.43871 | 8.48582 | 20667 ft | 403 kts | 18° |
| 2026-05-04 18:56 | 50.46524 | 8.50029 | 21159 ft | 405 kts | 18° |
| 2026-05-04 18:56 | 50.49197 | 8.51446 | 21618 ft | 407 kts | 16° |
| 2026-05-04 18:56 | 50.51938 | 8.52794 | 22069 ft | 409 kts | 15° |
| 2026-05-04 18:57 | 50.54639 | 8.54060 | 22499 ft | 412 kts | 15° |
| 2026-05-04 18:57 | 50.57406 | 8.55338 | 22940 ft | 415 kts | 14° |
| 2026-05-04 18:57 | 50.60181 | 8.56629 | 23385 ft | 417 kts | 14° |
| 2026-05-04 18:57 | 50.62967 | 8.57939 | 23762 ft | 420 kts | 15° |
| 2026-05-04 18:58 | 50.65777 | 8.59277 | 23937 ft | 422 kts | 15° |
| 2026-05-04 18:58 | 50.68580 | 8.60621 | 23978 ft | 422 kts | 15° |
| 2026-05-04 18:58 | 50.71390 | 8.61979 | 23981 ft | 422 kts | 15° |
| 2026-05-04 18:58 | 50.74168 | 8.63255 | 23975 ft | 420 kts | 9° |
| 2026-05-04 18:59 | 50.77057 | 8.63679 | 23979 ft | 415 kts | 355° |
| 2026-05-04 18:59 | 50.79907 | 8.63125 | 23976 ft | 410 kts | 343° |
| 2026-05-04 18:59 | 50.82560 | 8.61818 | 23979 ft | 389 kts | 334° |
| 2026-05-04 18:59 | 50.84919 | 8.59972 | 23976 ft | 369 kts | 324° |
| 2026-05-04 19:00 | 50.86983 | 8.57669 | 23974 ft | 360 kts | 315° |
| 2026-05-04 19:00 | 50.88746 | 8.54902 | 23977 ft | 355 kts | 306° |
| 2026-05-04 19:00 | 50.90335 | 8.51922 | 23971 ft | 354 kts | 306° |
| 2026-05-04 19:00 | 50.91923 | 8.48940 | 23991 ft | 354 kts | 306° |
| 2026-05-04 19:01 | 50.93506 | 8.45972 | 23981 ft | 346 kts | 306° |
| 2026-05-04 19:01 | 50.95027 | 8.43137 | 23983 ft | 330 kts | 306° |
| 2026-05-04 19:01 | 50.96482 | 8.40417 | 23983 ft | 318 kts | 306° |
| 2026-05-04 19:01 | 50.97901 | 8.37751 | 23980 ft | 316 kts | 306° |
| 2026-05-04 19:02 | 50.99313 | 8.35085 | 23984 ft | 315 kts | 306° |
| 2026-05-04 19:02 | 51.00798 | 8.32510 | 23991 ft | 317 kts | 311° |
| 2026-05-04 19:02 | 51.02477 | 8.30213 | 23987 ft | 320 kts | 319° |
| 2026-05-04 19:02 | 51.04331 | 8.28235 | 23997 ft | 323 kts | 326° |
| 2026-05-04 19:03 | 51.06296 | 8.26497 | 23988 ft | 322 kts | 327° |
| 2026-05-04 19:03 | 51.08396 | 8.25244 | 23974 ft | 328 kts | 347° |
| 2026-05-04 19:03 | 51.10695 | 8.25199 | 23741 ft | 333 kts | 2° |
| 2026-05-04 19:03 | 51.12999 | 8.25588 | 23502 ft | 333 kts | 4° |
| 2026-05-04 19:04 | 51.14517 | 8.25873 | 23323 ft | 332 kts | 4° |
| 2026-05-04 19:04 | 51.16809 | 8.26308 | 23049 ft | 331 kts | 4° |
| 2026-05-04 19:04 | 51.19090 | 8.26744 | 22787 ft | 330 kts | 4° |
| 2026-05-04 19:04 | 51.21362 | 8.27177 | 22509 ft | 328 kts | 4° |
| 2026-05-04 19:05 | 51.23629 | 8.27608 | 22242 ft | 327 kts | 4° |
| 2026-05-04 19:05 | 51.25883 | 8.28034 | 21973 ft | 325 kts | 4° |
| 2026-05-04 19:05 | 51.28126 | 8.28455 | 21723 ft | 324 kts | 4° |
| 2026-05-04 19:05 | 51.30362 | 8.28873 | 21463 ft | 323 kts | 4° |
| 2026-05-04 19:06 | 51.32592 | 8.29284 | 21208 ft | 322 kts | 4° |
| 2026-05-04 19:06 | 51.34812 | 8.29691 | 20952 ft | 321 kts | 4° |
| 2026-05-04 19:06 | 51.37028 | 8.30097 | 20699 ft | 320 kts | 4° |
| 2026-05-04 19:06 | 51.39238 | 8.30497 | 20448 ft | 319 kts | 4° |
| 2026-05-04 19:07 | 51.41439 | 8.30892 | 20197 ft | 318 kts | 4° |
| 2026-05-04 19:07 | 51.43638 | 8.31285 | 20008 ft | 317 kts | 4° |
| 2026-05-04 19:07 | 51.45829 | 8.31476 | 19971 ft | 313 kts | 350° |
| 2026-05-04 19:07 | 51.47971 | 8.30893 | 19981 ft | 312 kts | 344° |
| 2026-05-04 19:08 | 51.50092 | 8.30155 | 19985 ft | 312 kts | 344° |
| 2026-05-04 19:08 | 51.52211 | 8.29395 | 19980 ft | 312 kts | 344° |
| 2026-05-04 19:08 | 51.54324 | 8.28614 | 19988 ft | 312 kts | 344° |
| 2026-05-04 19:08 | 51.56444 | 8.27815 | 19986 ft | 312 kts | 344° |
| 2026-05-04 19:09 | 51.58547 | 8.27019 | 19977 ft | 312 kts | 343° |
| 2026-05-04 19:09 | 51.60628 | 8.26232 | 19979 ft | 312 kts | 344° |
| 2026-05-04 19:09 | 51.62738 | 8.25433 | 19975 ft | 312 kts | 344° |
| 2026-05-04 19:09 | 51.64849 | 8.24634 | 19972 ft | 312 kts | 343° |
| 2026-05-04 19:10 | 51.66990 | 8.23823 | 19990 ft | 312 kts | 344° |
| 2026-05-04 19:10 | 51.69075 | 8.23019 | 19981 ft | 313 kts | 344° |
| 2026-05-04 19:10 | 51.71194 | 8.22192 | 19980 ft | 313 kts | 343° |
| 2026-05-04 19:10 | 51.73340 | 8.21353 | 19979 ft | 314 kts | 343° |
| 2026-05-04 19:11 | 51.75404 | 8.20394 | 19973 ft | 310 kts | 331° |
| 2026-05-04 19:11 | 51.77113 | 8.18389 | 19979 ft | 302 kts | 306° |
| 2026-05-04 19:11 | 51.78102 | 8.15495 | 19975 ft | 293 kts | 281° |
| 2026-05-04 19:11 | 51.78492 | 8.12279 | 19976 ft | 291 kts | 275° |
| 2026-05-04 19:12 | 51.78774 | 8.09036 | 19978 ft | 292 kts | 274° |
| 2026-05-04 19:12 | 51.79302 | 8.02545 | 19974 ft | 292 kts | 274° |
| 2026-05-04 19:12 | 51.79564 | 7.99299 | 19975 ft | 292 kts | 274° |
| 2026-05-04 19:13 | 51.79826 | 7.96051 | 19975 ft | 292 kts | 274° |
| 2026-05-04 19:13 | 51.79830 | 7.92828 | 19835 ft | 284 kts | 255° |
| 2026-05-04 19:13 | 51.79124 | 7.89919 | 19462 ft | 277 kts | 233° |
| 2026-05-04 19:13 | 51.77816 | 7.87696 | 19089 ft | 273 kts | 213° |
| 2026-05-04 19:14 | 51.76196 | 7.86117 | 18712 ft | 272 kts | 210° |
| 2026-05-04 19:14 | 51.74569 | 7.84571 | 18365 ft | 271 kts | 210° |
| 2026-05-04 19:14 | 51.72950 | 7.83027 | 17999 ft | 270 kts | 210° |
| 2026-05-04 19:14 | 51.71339 | 7.81487 | 17615 ft | 268 kts | 210° |
| 2026-05-04 19:15 | 51.69736 | 7.79959 | 17237 ft | 267 kts | 210° |
| 2026-05-04 19:15 | 51.68142 | 7.78438 | 16870 ft | 266 kts | 210° |
| 2026-05-04 19:15 | 51.66553 | 7.76922 | 16507 ft | 265 kts | 210° |
| 2026-05-04 19:15 | 51.64973 | 7.75413 | 16148 ft | 264 kts | 210° |
| 2026-05-04 19:16 | 51.63398 | 7.73909 | 15804 ft | 263 kts | 210° |
| 2026-05-04 19:16 | 51.61827 | 7.72414 | 15438 ft | 262 kts | 210° |
| 2026-05-04 19:16 | 51.60254 | 7.70927 | 15082 ft | 262 kts | 210° |
| 2026-05-04 19:16 | 51.58686 | 7.69443 | 14738 ft | 261 kts | 210° |
| 2026-05-04 19:17 | 51.57124 | 7.67962 | 14413 ft | 260 kts | 210° |
| 2026-05-04 19:17 | 51.55569 | 7.66487 | 14080 ft | 259 kts | 210° |
| 2026-05-04 19:17 | 51.54031 | 7.65030 | 13960 ft | 256 kts | 209° |
| 2026-05-04 19:17 | 51.52496 | 7.63577 | 13726 ft | 256 kts | 209° |
| 2026-05-04 19:18 | 51.50960 | 7.62122 | 13348 ft | 256 kts | 210° |
| 2026-05-04 19:18 | 51.49432 | 7.60678 | 12995 ft | 254 kts | 209° |
| 2026-05-04 19:18 | 51.47910 | 7.59244 | 12649 ft | 253 kts | 210° |
| 2026-05-04 19:18 | 51.46394 | 7.57815 | 12313 ft | 252 kts | 210° |
| 2026-05-04 19:19 | 51.44889 | 7.56394 | 11995 ft | 251 kts | 210° |
| 2026-05-04 19:19 | 51.43422 | 7.54902 | 11656 ft | 250 kts | 216° |
| 2026-05-04 19:19 | 51.42094 | 7.53110 | 11331 ft | 249 kts | 223° |
| 2026-05-04 19:19 | 51.40939 | 7.51053 | 11006 ft | 249 kts | 231° |
| 2026-05-04 19:20 | 51.39952 | 7.48778 | 10708 ft | 248 kts | 235° |
| 2026-05-04 19:20 | 51.39001 | 7.46479 | 10390 ft | 247 kts | 235° |
| 2026-05-04 19:20 | 51.38055 | 7.44194 | 10094 ft | 246 kts | 235° |
| 2026-05-04 19:20 | 51.37124 | 7.41953 | 9779 ft | 244 kts | 235° |
| 2026-05-04 19:21 | 51.36186 | 7.39697 | 9457 ft | 243 kts | 234° |
| 2026-05-04 19:21 | 51.35252 | 7.37457 | 9137 ft | 241 kts | 234° |
| 2026-05-04 19:21 | 51.34325 | 7.35235 | 8820 ft | 239 kts | 235° |
| 2026-05-04 19:21 | 51.33411 | 7.33043 | 8573 ft | 235 kts | 234° |
| 2026-05-04 19:22 | 51.32510 | 7.30887 | 8261 ft | 232 kts | 234° |
| 2026-05-04 19:22 | 51.31622 | 7.28760 | 7955 ft | 230 kts | 234° |
| 2026-05-04 19:22 | 51.30732 | 7.26634 | 7629 ft | 229 kts | 234° |
| 2026-05-04 19:22 | 51.29847 | 7.24525 | 7311 ft | 228 kts | 234° |
| 2026-05-04 19:23 | 51.28965 | 7.22426 | 7038 ft | 225 kts | 234° |
| 2026-05-04 19:23 | 51.28093 | 7.20350 | 6992 ft | 226 kts | 234° |
| 2026-05-04 19:23 | 51.27212 | 7.18254 | 6992 ft | 228 kts | 234° |
| 2026-05-04 19:23 | 51.26404 | 7.16077 | 6990 ft | 230 kts | 248° |
| 2026-05-04 19:24 | 51.26215 | 7.13519 | 6981 ft | 239 kts | 276° |
| 2026-05-04 19:24 | 51.26846 | 7.11050 | 6980 ft | 247 kts | 305° |
| 2026-05-04 19:24 | 51.28126 | 7.09200 | 6802 ft | 250 kts | 320° |
| 2026-05-04 19:24 | 51.29585 | 7.07710 | 6457 ft | 251 kts | 338° |
| 2026-05-04 19:25 | 51.31305 | 7.07333 | 6111 ft | 252 kts | 7° |
| 2026-05-04 19:25 | 51.32940 | 7.08252 | 5747 ft | 251 kts | 36° |
| 2026-05-04 19:25 | 51.34147 | 7.10228 | 5356 ft | 249 kts | 56° |
| 2026-05-04 19:25 | 51.35211 | 7.12408 | 5052 ft | 247 kts | 45° |
| 2026-05-04 19:26 | 51.36680 | 7.13775 | 4819 ft | 246 kts | 13° |
| 2026-05-04 19:26 | 51.38353 | 7.13771 | 4475 ft | 240 kts | 342° |
| 2026-05-04 19:26 | 51.39917 | 7.12843 | 4111 ft | 239 kts | 335° |
| 2026-05-04 19:26 | 51.41401 | 7.11670 | 3770 ft | 236 kts | 321° |
| 2026-05-04 19:27 | 51.42433 | 7.09701 | 3453 ft | 230 kts | 293° |
| 2026-05-04 19:27 | 51.42802 | 7.07253 | 3089 ft | 226 kts | 266° |
| 2026-05-04 19:27 | 51.42463 | 7.04852 | 2981 ft | 223 kts | 242° |
| 2026-05-04 19:27 | 51.41615 | 7.02819 | 2972 ft | 217 kts | 231° |
| 2026-05-04 19:28 | 51.40739 | 7.00967 | 2991 ft | 196 kts | 231° |
| 2026-05-04 19:28 | 51.39965 | 6.99327 | 2988 ft | 181 kts | 231° |
| 2026-05-04 19:28 | 51.39214 | 6.97738 | 2983 ft | 177 kts | 231° |
| 2026-05-04 19:28 | 51.38475 | 6.96174 | 2930 ft | 176 kts | 231° |
| 2026-05-04 19:29 | 51.37739 | 6.94618 | 2757 ft | 175 kts | 231° |
| 2026-05-04 19:29 | 51.37009 | 6.93075 | 2538 ft | 173 kts | 231° |
| 2026-05-04 19:29 | 51.36282 | 6.91539 | 2310 ft | 170 kts | 231° |
| 2026-05-04 19:29 | 51.35576 | 6.90046 | 2088 ft | 169 kts | 231° |
| 2026-05-04 19:30 | 51.34871 | 6.88560 | 1853 ft | 168 kts | 231° |
| 2026-05-04 19:30 | 51.34187 | 6.87115 | 1649 ft | 156 kts | 230° |
| 2026-05-04 19:30 | 51.33564 | 6.85799 | 1434 ft | 143 kts | 229° |
| 2026-05-04 19:30 | 51.32971 | 6.84551 | 1241 ft | 139 kts | 229° |
| 2026-05-04 19:31 | 51.32385 | 6.83316 | 1044 ft | 139 kts | 229° |
| 2026-05-04 19:31 | 51.31799 | 6.82084 | 844 ft | 139 kts | 229° |
| 2026-05-04 19:31 | 51.31216 | 6.80857 | 676 ft | 137 kts | 229° |
| 2026-05-04 19:31 | 51.30641 | 6.79648 | 487 ft | 138 kts | 231° |
| 2026-05-04 19:32 | 51.30062 | 6.78421 | 297 ft | 137 kts | 231° |
| 2026-05-04 19:32 | 51.29484 | 6.77218 | 137 ft | 136 kts | 230° |
| 2026-05-04 19:32 | 51.28973 | 6.76146 | 128 ft | 105 kts | 232° |
| 2026-05-04 19:32 | 51.28615 | 6.75387 | 124 ft | 52 kts | 233° |
| 2026-05-04 19:33 | 51.28435 | 6.75013 | 117 ft | 28 kts | 232° |
| 2026-05-04 19:33 | 51.28314 | 6.74971 | 119 ft | 17 kts | 155° |
| 2026-05-04 19:33 | 51.28204 | 6.75057 | 122 ft | 18 kts | 154° |
| 2026-05-04 19:33 | 51.28164 | 6.75089 | 121 ft | 0 kts | 153° |
| 2026-05-04 19:38 | 51.28163 | 6.75090 | 121 ft | 1 kts | 153° |
| 2026-05-04 19:38 | 51.28131 | 6.75116 | 121 ft | 10 kts | 153° |
| 2026-05-04 19:39 | 51.28051 | 6.75181 | 119 ft | 14 kts | 152° |
| 2026-05-04 19:39 | 51.27973 | 6.75244 | 121 ft | 12 kts | 154° |
| 2026-05-04 19:39 | 51.27892 | 6.75309 | 122 ft | 14 kts | 153° |
| 2026-05-04 19:39 | 51.27875 | 6.75323 | 123 ft | 0 kts | 153° |
| 2026-05-04 19:40 | 51.27862 | 6.75333 | 120 ft | 5 kts | 152° |
| 2026-05-04 19:40 | 51.27843 | 6.75392 | 125 ft | 8 kts | 86° |
| 2026-05-04 19:40 | 51.27876 | 6.75491 | 126 ft | 12 kts | 54° |
| 2026-05-04 19:40 | 51.27909 | 6.75561 | 127 ft | 9 kts | 52° |
| 2026-05-04 19:41 | 51.27951 | 6.75650 | 125 ft | 11 kts | 52° |
| 2026-05-04 19:41 | 51.27980 | 6.75707 | 127 ft | 0 kts | 53° |
| 2026-05-04 19:41 | 51.27983 | 6.75712 | 127 ft | 3 kts | 53° |
| 2026-05-04 19:42 | 51.28005 | 6.75760 | 127 ft | 8 kts | 53° |
| 2026-05-04 19:42 | 51.28056 | 6.75867 | 128 ft | 16 kts | 53° |
| 2026-05-04 19:42 | 51.28121 | 6.76003 | 128 ft | 13 kts | 53° |
| 2026-05-04 19:42 | 51.28169 | 6.76106 | 125 ft | 12 kts | 53° |
| 2026-05-04 19:43 | 51.28191 | 6.76231 | 126 ft | 13 kts | 129° |
| 2026-05-04 19:43 | 51.28159 | 6.76288 | 124 ft | 6 kts | 131° |
| 2026-05-04 19:43 | 51.28129 | 6.76360 | 124 ft | 9 kts | 120° |
| 2026-05-04 19:43 | 51.28113 | 6.76472 | 124 ft | 12 kts | 95° |
| 2026-05-04 19:44 | 51.28108 | 6.76538 | 127 ft | 0 kts | 95° |